• Join FlightAware (Why Join?)
  • Login
  • US Flag 
07:55AM EDT


 

Airport Tracker/Info


-or-


 

Live Flight TrackerFlight Track Log ✈ TMC875 ✈ 17-Apr-2013 ✈ KSAT - KAUS

Flight Track Log - Related Links

Times and Time Zones

All times are in EDT time to prevent confusion due to time zone crossing. See the TMC875 flight status page for this flight to view local times or setup timezone preferences in your user account.

Time Position Orientation Groundspeed Altitude Reporting Facility
EDT Latitude Longitude Course Direction KTS MPH feet Rate Location/Type
01:35PM 29.5153 -98.4503 90° East 199 229 2,700  Level Houston Center
01:36PM 29.5153 -98.3683 90° East 279 321 7,300 3,780 Climbing Houston Center
01:37PM 29.6075 -98.3481 11° North 316 364 11,000 1,800 Climbing Houston Center
01:38PM 29.7022 -98.3389 North 352 405 11,000  Level Houston Center
01:39PM 29.8100 -98.3275 North 359 413 11,000  Level Houston Center
01:40PM 29.9011 -98.2769 26° Northeast 369 425 11,000  Level Houston Center
01:41PM 29.9897 -98.2131 32° Northeast 371 427 11,000  Level Houston Center
01:42PM 30.0844 -98.1439 32° Northeast 374 430 11,000  Level Houston Center
01:43PM 30.1722 -98.0769 33° Northeast 378 435 11,000 -480 Level Houston Center
01:44PM 30.2511 -97.9989 41° Northeast 349 402 10,100 -1,200 Descending Houston Center
01:45PM 30.2989 -97.9156 56° Northeast 319 367 8,600 -1,800 Descending Houston Center
01:46PM 30.3528 -97.8567 43° Northeast 302 348 6,400 -2,580 Descending Houston Center
01:47PM 30.3789 -97.7725 70° East 251 289 3,300 -1,680 Descending Houston Center
01:48PM 30.3811 -97.7064 88° East 223 257 3,000 -180 Descending Houston Center
01:49PM 30.3542 -97.6714 132° Southeast 182 209 3,000 -300 Level Houston Center
01:50PM 30.3100 -97.6583 166° South 168 193 2,500 -660 Descending Houston Center
01:51PM 30.2658 -97.6589 181° South 161 185 1,700 -720 Descending Houston Center
01:52PM 30.2319 -97.6569 177° South 137 158 1,100 -600 Descending Houston Center
01:54PM 30.1945 -97.6699 221° Southwest  Level Estimated
02:01PM 30.1945 -97.6699 221° Southwest  Level Estimated